Accueil
METAR-TAF:

METAR-TAF

Aéroports :

Cox Field

Paris, Texas, États-Unis

latitude: 33-38N, longitude: 095-27W, altitude: 167 m

Observation

Le bulletin a été fait il y a 52 minutes, à 23:56 UTC
Vent 18 kt de nord avec des rafales jusqu'à 32 kt
Température 0°C
Humidité 80%
Pression 1027 hPa
Visibilité: 16.1 km
Ciel couvert à une hauteur de 1700 ft

METAR: KPRX 112356Z AUTO 35018G32KT 10SM OVC017 00/M03 A3033 RMK AO2 PK WND 34033/2303 SLP291 60000 T00001028 10067 20000 51057 FZRANO

Heure: 18:48 (00:48 UTC)


TAF: absent

Observations et prévisions météorologiques de plus de 4000 aéroports (messages METAR et TAF).

Les stations disponibles sont représentées par des disques jaunes et rouges sur la carte.

Passer la souris dessus pour voir le nom de la station.

Cliquer dessus pour voir les observations et prévisions météorologiques.

Pour changer de carte: cliquez sur les boutons verts avec une croix noire pour zoomer, sur le bouton vert avec un tiret pour effectuer un zoom arrière, ou sur les flèches vertes pour les cartes adjacentes.


METAR-TAF: